createdAt,value
2022-08-19T00:00:40.463Z,22.92
2022-08-19T00:03:08.526Z,18.83
2022-08-19T00:05:38.140Z,18.15
2022-08-19T00:08:06.136Z,18.85
2022-08-19T00:10:35.153Z,18.73
2022-08-19T00:13:03.364Z,20.25
2022-08-19T00:15:32.365Z,20.95
2022-08-19T00:18:01.008Z,21.75
2022-08-19T00:20:29.163Z,20.08
2022-08-19T00:22:57.789Z,22.85
2022-08-19T00:25:30.285Z,21.42
2022-08-19T00:28:00.078Z,19.08
2022-08-19T00:30:31.328Z,17.65
2022-08-19T00:32:59.584Z,21.13
2022-08-19T00:35:28.460Z,18.77
2022-08-19T00:37:56.566Z,21.25
2022-08-19T00:40:26.212Z,19.40
2022-08-19T00:42:56.742Z,23.27
2022-08-19T00:45:26.590Z,21.45
2022-08-19T00:47:54.549Z,21.95
2022-08-19T00:50:22.841Z,21.42
2022-08-19T00:52:51.569Z,21.85
2022-08-19T00:55:22.093Z,23.20
2022-08-19T00:58:06.007Z,16.02
2022-08-19T01:00:37.747Z,23.48
2022-08-19T01:03:12.183Z,17.10
2022-08-19T01:05:42.377Z,17.10
2022-08-19T01:08:10.514Z,16.45
2022-08-19T01:10:53.266Z,16.77
2022-08-19T01:13:24.985Z,18.92
2022-08-19T01:15:58.046Z,17.90
2022-08-19T01:18:26.191Z,16.33
2022-08-19T01:20:55.571Z,18.00
2022-08-19T01:23:43.503Z,20.00
2022-08-19T01:26:17.332Z,16.02
2022-08-19T01:28:46.870Z,17.27
2022-08-19T01:31:26.918Z,19.27
2022-08-19T01:33:57.145Z,19.60
2022-08-19T01:36:34.432Z,15.80
2022-08-19T01:39:05.725Z,17.33
2022-08-19T01:41:34.270Z,16.80
2022-08-19T01:44:17.591Z,16.60
2022-08-19T01:46:48.666Z,18.95
2022-08-19T01:49:18.708Z,19.27
2022-08-19T01:51:50.749Z,16.25
2022-08-19T01:54:23.383Z,17.83
2022-08-19T01:56:59.250Z,18.67
2022-08-19T01:59:27.223Z,19.60
2022-08-19T02:01:55.573Z,17.80
2022-08-19T02:04:24.501Z,17.98
2022-08-19T02:06:52.875Z,17.83
2022-08-19T02:09:21.413Z,16.17
2022-08-19T02:11:50.793Z,20.27
2022-08-19T02:14:19.205Z,21.40
2022-08-19T02:16:47.119Z,17.38
2022-08-19T02:19:14.929Z,22.23
2022-08-19T02:21:44.512Z,19.85
2022-08-19T02:24:13.414Z,16.83
2022-08-19T02:26:41.358Z,19.85
2022-08-19T02:29:09.656Z,16.50
2022-08-19T02:31:38.186Z,20.05
2022-08-19T02:34:06.177Z,18.98
2022-08-19T02:36:34.244Z,20.40
2022-08-19T02:39:02.389Z,19.15
2022-08-19T02:41:32.685Z,18.80
2022-08-19T02:44:30.246Z,20.67
2022-08-19T02:46:51.612Z,22.10
2022-08-19T02:49:20.826Z,22.02
2022-08-19T02:51:55.461Z,25.48
2022-08-19T02:54:24.180Z,30.67
2022-08-19T02:56:52.726Z,31.17
2022-08-19T02:59:23.015Z,28.77
2022-08-19T03:01:51.186Z,30.60
2022-08-19T03:04:20.662Z,30.55
2022-08-19T03:06:49.179Z,35.53
2022-08-19T03:09:17.684Z,27.58
2022-08-19T03:11:46.503Z,27.90
2022-08-19T03:14:16.710Z,27.67
2022-08-19T03:16:47.156Z,23.67
2022-08-19T03:19:16.572Z,25.48
2022-08-19T03:21:48.076Z,25.98
2022-08-19T03:24:16.527Z,22.50
2022-08-19T03:26:47.809Z,22.80
2022-08-19T03:29:25.227Z,21.45
2022-08-19T03:32:01.995Z,19.83
2022-08-19T03:34:34.502Z,22.58
2022-08-19T03:37:09.524Z,20.00
2022-08-19T03:39:38.460Z,18.33
2022-08-19T03:42:38.545Z,19.02
2022-08-19T03:44:54.641Z,21.05
2022-08-19T03:47:22.567Z,20.00
2022-08-19T03:49:54.674Z,22.27
2022-08-19T03:52:23.415Z,21.23
2022-08-19T03:54:51.496Z,21.73
2022-08-19T03:57:20.362Z,16.25
2022-08-19T03:59:49.339Z,19.00
2022-08-19T04:02:17.346Z,22.52
2022-08-19T04:04:45.316Z,18.50
2022-08-19T04:07:16.887Z,20.30
2022-08-19T04:09:45.042Z,22.35
2022-08-19T04:12:13.025Z,22.67
2022-08-19T04:14:46.826Z,23.98
2022-08-19T04:17:15.422Z,22.75
2022-08-19T04:19:45.626Z,21.85
2022-08-19T04:22:14.638Z,21.85
2022-08-19T04:24:42.464Z,26.60
2022-08-19T04:27:10.289Z,22.85
2022-08-19T04:29:40.581Z,23.90
2022-08-19T04:32:12.562Z,30.30
2022-08-19T04:35:01.161Z,23.75
2022-08-19T04:37:35.174Z,20.52
2022-08-19T04:40:24.447Z,19.52
2022-08-19T04:42:54.722Z,22.70
2022-08-19T04:45:23.412Z,21.08
2022-08-19T04:47:58.618Z,21.63
2022-08-19T04:50:45.356Z,20.08
2022-08-19T04:53:13.331Z,22.48
2022-08-19T04:55:42.620Z,20.48
2022-08-19T04:58:11.084Z,24.77
2022-08-19T05:00:40.639Z,25.48
2022-08-19T05:03:10.050Z,24.65
2022-08-19T05:05:44.555Z,20.65
2022-08-19T05:08:15.305Z,20.05
2022-08-19T05:10:44.480Z,26.48
2022-08-19T05:13:12.420Z,23.83
2022-08-19T05:15:40.315Z,23.92
2022-08-19T05:18:29.817Z,26.30
2022-08-19T05:21:17.238Z,22.38
2022-08-19T05:23:48.598Z,24.55
2022-08-19T05:26:20.411Z,26.70
2022-08-19T05:28:51.950Z,24.25
2022-08-19T05:31:24.026Z,22.75
2022-08-19T05:33:52.273Z,26.13
2022-08-19T05:36:21.132Z,24.83
2022-08-19T05:38:48.998Z,22.65
2022-08-19T05:41:18.411Z,24.10
2022-08-19T05:43:46.283Z,21.95
2022-08-19T05:46:27.796Z,26.30
2022-08-19T05:48:57.644Z,19.65
2022-08-19T05:51:28.908Z,25.00
2022-08-19T05:53:57.582Z,30.02
2022-08-19T05:56:25.813Z,28.48
2022-08-19T05:58:55.310Z,26.80
2022-08-19T06:01:30.315Z,27.70
2022-08-19T06:03:58.646Z,29.13
2022-08-19T06:06:26.805Z,35.08
2022-08-19T06:08:58.452Z,29.90
2022-08-19T06:11:44.667Z,34.38
2022-08-19T06:14:16.645Z,28.67
2022-08-19T06:16:45.672Z,34.30
2022-08-19T06:19:15.701Z,30.20
2022-08-19T06:21:45.760Z,25.88
2022-08-19T06:24:15.629Z,30.08
2022-08-19T06:29:23.742Z,33.08
2022-08-19T06:32:02.499Z,38.63
2022-08-19T06:34:32.177Z,39.25
2022-08-19T06:37:03.922Z,34.92
2022-08-19T06:39:34.690Z,41.50
2022-08-19T06:42:04.439Z,42.13
2022-08-19T06:44:42.790Z,39.95
2022-08-19T06:47:23.552Z,36.75
2022-08-19T06:50:03.953Z,39.45
2022-08-19T06:52:36.670Z,45.00
2022-08-19T06:55:10.313Z,41.50
2022-08-19T06:57:39.587Z,40.55
2022-08-19T07:00:13.179Z,37.42
2022-08-19T07:02:49.599Z,42.08
2022-08-19T07:05:24.796Z,41.20
2022-08-19T07:07:52.832Z,38.08
2022-08-19T07:10:20.884Z,37.00
2022-08-19T07:12:51.927Z,38.17
2022-08-19T07:15:22.407Z,38.10
2022-08-19T07:17:52.785Z,37.85
2022-08-19T07:20:28.472Z,39.30
2022-08-19T07:22:57.721Z,40.58
2022-08-19T07:25:34.712Z,35.90
2022-08-19T07:28:04.169Z,34.17
2022-08-19T07:30:33.218Z,38.00
2022-08-19T07:33:07.787Z,33.05
2022-08-19T07:35:36.576Z,33.28
2022-08-19T07:38:04.893Z,30.27
2022-08-19T07:40:40.345Z,30.70
2022-08-19T07:43:11.202Z,33.92
2022-08-19T07:45:44.715Z,24.27
2022-08-19T07:48:12.826Z,28.13
2022-08-19T07:50:44.864Z,26.33
2022-08-19T07:53:13.853Z,30.15
2022-08-19T07:55:43.797Z,25.27
2022-08-19T07:58:15.892Z,25.23
2022-08-19T08:00:46.350Z,24.70
2022-08-19T08:03:15.859Z,22.08
2022-08-19T08:06:02.912Z,22.73
2022-08-19T08:09:01.173Z,23.73
2022-08-19T08:11:29.541Z,21.85
2022-08-19T08:14:00.908Z,21.90
2022-08-19T08:16:39.784Z,20.77
2022-08-19T08:19:25.456Z,21.08
2022-08-19T08:21:55.942Z,22.08
2022-08-19T08:24:28.324Z,23.10
2022-08-19T08:26:57.835Z,23.25
2022-08-19T08:29:34.752Z,33.55
2022-08-19T08:32:14.197Z,20.92
2022-08-19T08:34:43.879Z,23.75
2022-08-19T08:37:12.777Z,30.65
2022-08-19T08:39:44.303Z,28.55
2022-08-19T08:42:23.692Z,20.25
2022-08-19T08:45:06.465Z,18.27
2022-08-19T08:47:37.478Z,32.70
2022-08-19T08:50:08.772Z,22.50
2022-08-19T08:52:43.505Z,22.42
2022-08-19T08:55:16.838Z,23.13
2022-08-19T08:57:56.260Z,38.97
2022-08-19T09:00:41.565Z,36.35
2022-08-19T09:03:16.898Z,23.27
2022-08-19T09:05:53.300Z,18.55
2022-08-19T09:08:56.972Z,20.08
2022-08-19T09:11:51.003Z,23.58
2022-08-19T09:14:51.074Z,19.08
2022-08-19T09:17:28.629Z,19.73
2022-08-19T09:20:02.025Z,23.52
2022-08-19T09:22:30.260Z,20.48
2022-08-19T09:24:59.907Z,16.67
2022-08-19T09:27:42.264Z,16.65
2022-08-19T09:30:17.023Z,15.55
2022-08-19T09:32:46.441Z,17.80
2022-08-19T09:35:15.417Z,14.68
2022-08-19T09:37:45.118Z,12.18
2022-08-19T09:40:20.419Z,15.60
2022-08-19T09:42:49.994Z,14.20
2022-08-19T09:45:22.282Z,13.35
2022-08-19T09:47:55.596Z,14.40
2022-08-19T09:50:29.892Z,12.65
2022-08-19T09:53:06.351Z,12.68
2022-08-19T09:55:36.788Z,12.85
2022-08-19T09:58:15.841Z,11.52
2022-08-19T10:00:43.767Z,12.02
2022-08-19T10:03:21.508Z,11.68
2022-08-19T10:05:54.639Z,10.95
2022-08-19T10:08:26.769Z,11.73
2022-08-19T10:10:56.007Z,11.73
2022-08-19T10:13:27.266Z,13.10
2022-08-19T10:15:58.194Z,12.45
2022-08-19T10:18:26.582Z,11.38
2022-08-19T10:21:11.589Z,10.20
2022-08-19T10:23:42.611Z,14.60
2022-08-19T10:26:10.497Z,13.10
2022-08-19T10:28:39.002Z,16.02
2022-08-19T10:31:14.724Z,12.52
2022-08-19T10:33:54.017Z,11.25
2022-08-19T10:36:24.536Z,12.82
2022-08-19T10:38:56.850Z,12.50
2022-08-19T10:41:28.178Z,16.23
2022-08-19T10:44:04.348Z,11.82
2022-08-19T10:46:39.341Z,16.40
2022-08-19T10:49:07.895Z,12.23
2022-08-19T10:51:54.844Z,13.48
2022-08-19T10:54:32.162Z,11.27
2022-08-19T10:57:03.333Z,12.18
2022-08-19T10:59:36.346Z,13.35
2022-08-19T11:02:26.066Z,15.27
2022-08-19T11:04:54.094Z,11.20
2022-08-19T11:07:26.384Z,19.38
2022-08-19T11:09:54.559Z,15.77
2022-08-19T11:12:22.697Z,18.55
2022-08-19T11:14:54.052Z,17.90
2022-08-19T11:17:24.559Z,14.18
2022-08-19T11:19:52.616Z,15.43
2022-08-19T11:22:21.097Z,13.75
2022-08-19T11:24:49.318Z,14.35
2022-08-19T11:27:17.377Z,12.98
2022-08-19T11:29:45.878Z,13.82
2022-08-19T11:32:14.124Z,17.25
2022-08-19T11:34:42.221Z,20.08
2022-08-19T11:37:10.163Z,15.15
2022-08-19T11:39:39.083Z,15.25
2022-08-19T11:42:29.199Z,15.18
2022-08-19T11:44:57.108Z,15.43
2022-08-19T11:47:25.212Z,17.35
2022-08-19T11:49:54.557Z,15.10
2022-08-19T11:52:22.615Z,15.80
2022-08-19T11:54:51.391Z,19.25
2022-08-19T11:57:20.966Z,19.80
2022-08-19T11:59:50.755Z,14.65
2022-08-19T12:02:20.239Z,17.77
2022-08-19T12:04:51.082Z,16.08
2022-08-19T12:07:19.423Z,14.32
2022-08-19T12:09:48.634Z,18.55
2022-08-19T12:12:18.418Z,16.25
2022-08-19T12:14:47.993Z,14.00
2022-08-19T12:17:17.000Z,16.10
2022-08-19T12:19:45.592Z,11.88
2022-08-19T12:22:13.504Z,12.02
2022-08-19T12:24:41.431Z,13.38
2022-08-19T12:27:12.481Z,13.13
2022-08-19T12:29:41.250Z,12.43
2022-08-19T12:32:10.446Z,11.43
2022-08-19T12:34:40.519Z,15.73
2022-08-19T12:37:14.360Z,18.77
2022-08-19T12:39:43.487Z,16.33
2022-08-19T12:42:12.130Z,13.35
2022-08-19T12:44:41.723Z,13.80
2022-08-19T12:47:11.979Z,11.73
2022-08-19T12:49:53.067Z,14.07
2022-08-19T12:52:48.997Z,13.90
2022-08-19T12:55:17.093Z,11.73
2022-08-19T12:57:44.929Z,13.00
2022-08-19T13:00:15.492Z,12.48
2022-08-19T13:02:47.683Z,14.25
2022-08-19T13:05:17.141Z,15.90
2022-08-19T13:07:45.113Z,18.00
2022-08-19T13:10:16.481Z,17.50
2022-08-19T13:12:49.420Z,12.43
2022-08-19T13:15:23.767Z,12.57
2022-08-19T13:17:53.626Z,18.85
2022-08-19T13:20:22.860Z,20.08
2022-08-19T13:22:51.084Z,9.05
2022-08-19T13:25:21.353Z,11.25
2022-08-19T13:27:50.365Z,10.43
2022-08-19T13:30:37.743Z,16.65
2022-08-19T13:33:11.921Z,13.95
2022-08-19T13:35:58.107Z,13.97
2022-08-19T13:38:26.158Z,12.43
2022-08-19T13:40:54.749Z,13.90
2022-08-19T13:43:24.925Z,12.65
2022-08-19T13:45:54.919Z,13.63
2022-08-19T13:48:23.443Z,11.57
2022-08-19T13:50:52.119Z,15.52
2022-08-19T13:53:20.827Z,9.48
2022-08-19T13:55:49.755Z,12.15
2022-08-19T13:58:18.287Z,11.85
2022-08-19T14:00:47.340Z,15.07
2022-08-19T14:03:15.856Z,16.38
2022-08-19T14:05:45.410Z,14.65
2022-08-19T14:08:15.277Z,16.05
2022-08-19T14:10:45.678Z,13.63
2022-08-19T14:13:19.451Z,13.25
2022-08-19T14:15:48.474Z,16.10
2022-08-19T14:18:18.880Z,18.13
2022-08-19T14:20:46.923Z,18.90
2022-08-19T14:23:15.142Z,17.70
2022-08-19T14:25:43.340Z,17.08
2022-08-19T14:28:11.660Z,15.23
2022-08-19T14:30:40.041Z,17.38
2022-08-19T14:33:09.512Z,16.00
2022-08-19T14:35:38.141Z,19.48
2022-08-19T14:38:07.226Z,22.23
2022-08-19T14:40:36.438Z,20.75
2022-08-19T14:43:05.563Z,20.33
2022-08-19T14:45:35.702Z,24.05
2022-08-19T14:48:08.522Z,16.98
2022-08-19T14:50:49.250Z,19.75
2022-08-19T14:53:17.994Z,21.58
2022-08-19T14:55:49.210Z,16.45
2022-08-19T14:58:28.933Z,15.25
2022-08-19T15:00:59.476Z,18.83
2022-08-19T15:03:27.860Z,15.90
2022-08-19T15:05:57.655Z,19.15
2022-08-19T15:08:28.525Z,14.45
2022-08-19T15:10:59.779Z,15.48
2022-08-19T15:13:28.732Z,17.02
2022-08-19T15:15:57.427Z,18.42
2022-08-19T15:18:26.012Z,12.85
2022-08-19T15:20:54.324Z,26.25
2022-08-19T15:23:22.450Z,10.10
2022-08-19T15:25:54.529Z,19.50
2022-08-19T15:28:23.725Z,11.38
2022-08-19T15:30:51.742Z,12.82
2022-08-19T15:33:20.881Z,11.75
2022-08-19T15:35:50.015Z,15.07
2022-08-19T15:38:22.401Z,14.30
2022-08-19T15:40:50.802Z,9.77
2022-08-19T15:43:24.945Z,17.40
2022-08-19T15:45:52.980Z,12.98
2022-08-19T15:48:20.892Z,13.77
2022-08-19T15:50:48.907Z,25.38
2022-08-19T15:53:16.976Z,16.65
2022-08-19T15:55:45.819Z,17.17
2022-08-19T15:58:34.959Z,32.30
2022-08-19T16:01:28.408Z,12.88
2022-08-19T16:04:30.205Z,14.52
2022-08-19T16:06:59.838Z,22.20
2022-08-19T16:09:31.633Z,24.05
2022-08-19T16:12:04.413Z,10.60
2022-08-19T16:14:36.485Z,16.65
2022-08-19T16:17:05.660Z,10.02
2022-08-19T16:19:33.760Z,17.45
2022-08-19T16:22:02.495Z,25.45
2022-08-19T16:24:30.739Z,29.33
2022-08-19T16:27:01.904Z,28.67
2022-08-19T16:29:34.490Z,32.25
2022-08-19T16:32:10.523Z,34.85
2022-08-19T16:34:40.273Z,26.77
2022-08-19T16:37:10.327Z,33.53
2022-08-19T16:39:38.739Z,32.38
2022-08-19T16:42:07.988Z,38.47
2022-08-19T16:44:37.069Z,34.80
2022-08-19T16:47:19.070Z,30.77
2022-08-19T16:49:54.540Z,30.95
2022-08-19T16:52:27.265Z,30.20
2022-08-19T16:54:55.607Z,35.08
2022-08-19T16:57:24.236Z,30.83
2022-08-19T16:59:52.606Z,29.10
2022-08-19T17:02:23.042Z,26.58
2022-08-19T17:04:57.681Z,26.88
2022-08-19T17:09:56.335Z,28.50
2022-08-19T17:12:31.790Z,23.50
2022-08-19T17:15:01.933Z,22.35
2022-08-19T17:17:30.797Z,25.73
2022-08-19T17:19:59.577Z,27.70
2022-08-19T17:22:27.799Z,23.23
2022-08-19T17:24:57.803Z,25.45
2022-08-19T17:27:31.308Z,25.25
2022-08-19T17:30:02.963Z,29.48
2022-08-19T17:32:34.484Z,24.63
2022-08-19T17:35:04.356Z,27.63
2022-08-19T17:37:33.121Z,28.23
2022-08-19T17:40:06.672Z,26.45
2022-08-19T17:42:37.094Z,27.55
2022-08-19T17:45:07.817Z,31.00
2022-08-19T17:47:39.154Z,27.52
2022-08-19T17:50:09.248Z,27.42
2022-08-19T17:52:40.457Z,32.20
2022-08-19T17:55:10.808Z,27.67
2022-08-19T17:58:01.082Z,26.92
2022-08-19T18:00:30.453Z,30.00
2022-08-19T18:03:03.139Z,27.88
2022-08-19T18:05:37.543Z,25.33
2022-08-19T18:08:11.223Z,25.90
2022-08-19T18:10:39.232Z,22.70
2022-08-19T18:13:17.073Z,25.17
2022-08-19T18:15:48.071Z,27.95
2022-08-19T18:18:16.063Z,25.95
2022-08-19T18:20:44.882Z,24.10
2022-08-19T18:23:45.339Z,23.67
2022-08-19T18:26:02.105Z,22.83
2022-08-19T18:28:30.938Z,24.45
2022-08-19T18:30:59.257Z,38.22
2022-08-19T18:33:44.382Z,23.95
2022-08-19T18:36:12.656Z,21.70
2022-08-19T18:38:58.967Z,29.15
2022-08-19T18:41:45.657Z,23.13
2022-08-19T18:44:32.034Z,21.13
2022-08-19T18:47:19.288Z,25.65
2022-08-19T18:52:16.442Z,20.27
2022-08-19T18:54:48.541Z,18.85
2022-08-19T18:57:18.994Z,20.35
2022-08-19T18:59:48.434Z,15.13
2022-08-19T19:02:19.792Z,18.25
2022-08-19T19:04:47.744Z,16.23
2022-08-19T19:07:16.028Z,16.33
2022-08-19T19:09:44.911Z,15.38
2022-08-19T19:12:15.671Z,18.55
2022-08-19T19:14:49.592Z,18.33
2022-08-19T19:17:25.949Z,17.17
2022-08-19T19:19:54.020Z,17.70
2022-08-19T19:22:22.556Z,13.80
2022-08-19T19:24:50.951Z,18.75
2022-08-19T19:27:20.712Z,15.55
2022-08-19T19:29:52.076Z,13.95
2022-08-19T19:32:31.075Z,15.38
2022-08-19T19:35:00.475Z,13.98
2022-08-19T19:37:28.415Z,13.55
2022-08-19T19:39:56.511Z,15.93
2022-08-19T19:42:24.682Z,15.90
2022-08-19T19:44:55.398Z,15.32
2022-08-19T19:47:24.702Z,15.10
2022-08-19T19:50:13.886Z,16.90
2022-08-19T19:52:45.729Z,16.90
2022-08-19T19:55:18.330Z,16.27
2022-08-19T19:57:47.423Z,18.15
2022-08-19T20:00:17.466Z,17.20
2022-08-19T20:02:49.601Z,17.60
2022-08-19T20:05:21.518Z,16.77
2022-08-19T20:08:08.849Z,17.35
2022-08-19T20:10:39.771Z,15.85
2022-08-19T20:13:08.024Z,19.20
2022-08-19T20:15:40.336Z,15.43
2022-08-19T20:18:14.723Z,16.40
2022-08-19T20:20:43.321Z,18.20
2022-08-19T20:23:11.325Z,18.15
2022-08-19T20:25:39.312Z,21.83
2022-08-19T20:28:07.314Z,19.10
2022-08-19T20:30:35.206Z,20.63
2022-08-19T20:33:06.982Z,24.25
2022-08-19T20:35:35.452Z,24.60
2022-08-19T20:38:04.119Z,28.58
2022-08-19T20:40:34.797Z,25.52
2022-08-19T20:43:02.733Z,21.10
2022-08-19T20:45:33.276Z,24.30
2022-08-19T20:48:03.216Z,26.70
2022-08-19T20:50:33.013Z,30.55
2022-08-19T20:53:01.024Z,26.20
2022-08-19T20:55:30.617Z,26.30
2022-08-19T20:57:58.846Z,21.02
2022-08-19T21:00:26.905Z,21.15
2022-08-19T21:02:54.857Z,22.90
2022-08-19T21:05:26.173Z,25.73
2022-08-19T21:07:56.599Z,24.30
2022-08-19T21:10:26.262Z,27.92
2022-08-19T21:12:55.683Z,25.05
2022-08-19T21:15:25.084Z,18.63
2022-08-19T21:17:56.236Z,17.95
2022-08-19T21:20:24.408Z,21.23
2022-08-19T21:22:52.453Z,22.85
2022-08-19T21:25:20.668Z,21.65
2022-08-19T21:27:53.963Z,16.95
2022-08-19T21:30:22.650Z,16.33
2022-08-19T21:32:52.529Z,16.60
2022-08-19T21:35:23.634Z,16.92
2022-08-19T21:37:51.836Z,18.65
2022-08-19T21:40:20.075Z,15.38
2022-08-19T21:42:48.626Z,19.13
2022-08-19T21:45:17.705Z,14.85
2022-08-19T21:47:45.797Z,14.15
2022-08-19T21:50:14.000Z,12.13
2022-08-19T21:52:42.325Z,11.85
2022-08-19T21:55:10.351Z,10.57
2022-08-19T21:57:41.495Z,14.68
2022-08-19T22:00:16.610Z,13.90
2022-08-19T22:02:45.803Z,12.38
2022-08-19T22:05:13.901Z,13.27
2022-08-19T22:07:43.094Z,16.33
2022-08-19T22:10:11.222Z,11.43
2022-08-19T22:12:51.314Z,12.60
2022-08-19T22:15:21.339Z,12.02
2022-08-19T22:17:50.054Z,11.68
2022-08-19T22:20:20.336Z,9.52
2022-08-19T22:22:58.289Z,12.60
2022-08-19T22:25:31.373Z,8.15
2022-08-19T22:28:01.563Z,8.60
2022-08-19T22:30:33.411Z,8.15
2022-08-19T22:33:05.019Z,8.68
2022-08-19T22:35:35.960Z,13.15
2022-08-19T22:38:06.567Z,9.80
2022-08-19T22:40:37.054Z,10.18
2022-08-19T22:43:08.189Z,10.57
2022-08-19T22:45:36.534Z,11.27
2022-08-19T22:48:08.073Z,9.63
2022-08-19T22:50:38.265Z,9.23
2022-08-19T22:53:08.108Z,9.43
2022-08-19T22:55:37.650Z,11.27
2022-08-19T22:58:05.785Z,11.52
2022-08-19T23:00:34.818Z,13.75
2022-08-19T23:03:02.920Z,10.63
2022-08-19T23:05:38.787Z,15.48
2022-08-19T23:08:41.101Z,14.27
2022-08-19T23:11:13.544Z,21.48
2022-08-19T23:13:43.633Z,18.80
2022-08-19T23:16:11.551Z,14.95
2022-08-19T23:18:39.703Z,15.00
2022-08-19T23:21:10.627Z,20.02
2022-08-19T23:23:39.386Z,19.52
2022-08-19T23:26:12.013Z,19.52
2022-08-19T23:28:58.917Z,17.05
2022-08-19T23:31:27.095Z,17.25
2022-08-19T23:33:55.695Z,14.27
2022-08-19T23:36:23.860Z,13.98
2022-08-19T23:38:54.819Z,19.73
2022-08-19T23:41:23.461Z,15.20
2022-08-19T23:43:55.181Z,14.90
2022-08-19T23:46:28.337Z,16.27
2022-08-19T23:48:58.029Z,23.60
2022-08-19T23:51:26.639Z,18.73
2022-08-19T23:53:54.884Z,18.90
2022-08-19T23:56:22.782Z,21.35
2022-08-19T23:58:50.787Z,18.88
